Christina G — ZCXO5 — position and weather

sailwx.info

Track history (hours):
 
Tides and Currents Weather Stations Pressure Air Temp Water Temp Dewpoint Dewpoint Depression Visibility Wind Speed Wind Dir Waves Ship Positions

Christina G

Last reported at 2014-Jul-29 18:31 UTC. Time now 2014-Jul-29 23:04 UTC.
Position N 40°50' E 014°13'.

Length 33 m; draft 2.5 m.

MMSI: 319032100.

Date/timePositionNaut miles runAvg speedWind from/ knotsBaromVisibWave heightAir tempDewpointWater temp
2014-Jul-29 18:31N 40°50' E 014°13'0 0.0
2014-Jul-29 16:19N 40°50' E 014°13'0 0.0
2014-Jul-29 14:31N 40°50' E 014°13'1 0.1
2014-Jul-29 04:15N 40°49' E 014°14'6 8.1
2014-Jul-29 03:33N 40°46' E 014°08'8 7.8
2014-Jul-29 02:34N 40°45' E 013°57'9 8.6
2014-Jul-29 01:33N 40°49' E 013°47'175 8.6
2014-Jul-28 05:09N 42°28' E 010°34'9 8.6
2014-Jul-28 04:06N 42°33' E 010°24'5 8.6
2014-Jul-28 03:33N 42°36' E 010°19'10 8.8
2014-Jul-28 02:22N 42°42' E 010°08'9 8.6
2014-Jul-28 01:18N 42°47' E 009°57'8 8.2
2014-Jul-28 00:21N 42°52' E 009°49'6 7.9
2014-Jul-27 23:33N 42°56' E 009°42'8 8.1
2014-Jul-27 22:33N 43°00' E 009°33'12 8.6
2014-Jul-27 21:10N 43°05' E 009°18'6 8.7
2014-Jul-27 20:28N 43°08' E 009°11'8 8.7
2014-Jul-27 19:33N 43°11' E 009°01'28 8.6
2014-Jul-27 16:19N 43°21' E 008°25'8 8.9
2014-Jul-27 15:26N 43°24' E 008°15'21 9.1
2014-Jul-27 13:10N 43°32' E 007°48'6 8.7
2014-Jul-27 12:31N 43°34' E 007°41'8 8.4
2014-Jul-27 11:33N 43°37' E 007°31'9 8.6
2014-Jul-27 10:33N 43°40' E 007°20'3 2.5
2014-Jul-27 09:33N 43°42' E 007°17'0 0.0
2014-Jul-27 08:24N 43°42' E 007°17'2 2.7
2014-Jul-27 07:33N 43°42' E 007°20'0 0.0
2014-Jul-27 06:33N 43°42' E 007°20'0 0.0
2014-Jul-27 05:33N 43°42' E 007°20'0 0.0
2014-Jul-27 04:33N 43°42' E 007°20'0 0.0
2014-Jul-27 03:32N 43°42' E 007°20'0 0.0
2014-Jul-27 02:33N 43°42' E 007°20'0 0.0
2014-Jul-27 01:33N 43°42' E 007°20'0 0.0
2014-Jul-27 00:34N 43°42' E 007°20'0 0.0
2014-Jul-26 23:33N 43°42' E 007°20'0 0.0
2014-Jul-26 22:34N 43°42' E 007°20'0 0.0
2014-Jul-26 21:33N 43°42' E 007°20'0 0.0
2014-Jul-26 20:34N 43°42' E 007°20'40 7.7
2014-Jul-26 15:26N 43°57' E 008°11'0 0.4
2014-Jul-26 14:32N 43°58' E 008°10'6 5.6
2014-Jul-26 13:33N 43°57' E 008°18'2210.8
2014-Jul-26 11:33N 44°06' E 008°45'1010.2
2014-Jul-26 10:33N 44°12' E 008°58'9 9.2
2014-Jul-26 09:33N 44°16' E 009°09'  
2014-Jul-23 09:34N 44°17' E 009°10'1110.6
2014-Jul-23 08:32N 44°15' E 008°55'1010.5
2014-Jul-23 07:32N 44°14' E 008°41'9 9.6
2014-Jul-23 06:33N 44°12' E 008°28'2 1.3
2014-Jul-23 05:13N 44°12' E 008°25'0 0.0
2014-Jul-23 04:25N 44°12' E 008°25'0 0.0
2014-Jul-23 03:19N 44°12' E 008°25'0 0.0
2014-Jul-23 02:31N 44°12' E 008°25'0 0.0
2014-Jul-23 01:31N 44°12' E 008°25'0 0.0
2014-Jul-23 00:31N 44°12' E 008°25'0 0.0
2014-Jul-22 23:16N 44°12' E 008°25'0 0.0
2014-Jul-22 22:13N 44°12' E 008°25'0 0.0
2014-Jul-22 19:31N 44°12' E 008°25'13 4.5
2014-Jul-22 16:31N 44°02' E 008°14'0 0.0
2014-Jul-22 15:33N 44°02' E 008°14'0 0.0
2014-Jul-22 14:33N 44°02' E 008°14'0 0.0
2014-Jul-22 13:33N 44°02' E 008°14'42 1.6
2014-Jul-21 10:19N 43°41' E 007°22'4 2.1
2014-Jul-21 08:28N 43°42' E 007°17'0 0.0
2014-Jul-21 07:28N 43°42' E 007°17'0 0.0
2014-Jul-21 06:22N 43°42' E 007°17'0 0.0
2014-Jul-21 04:22N 43°42' E 007°17'0 0.0
2014-Jul-21 03:28N 43°42' E 007°17'0 0.0
2014-Jul-21 02:28N 43°42' E 007°17'0 0.0
2014-Jul-21 01:22N 43°42' E 007°17'0 0.0
2014-Jul-21 00:28N 43°42' E 007°17'0 0.0
2014-Jul-20 23:22N 43°42' E 007°17'0 0.0
2014-Jul-20 22:10N 43°42' E 007°17'0 0.0
2014-Jul-20 20:10N 43°42' E 007°17'0 0.0
2014-Jul-20 19:28N 43°42' E 007°17'0 0.0
2014-Jul-20 18:28N 43°42' E 007°17'0 0.0
2014-Jul-20 17:22N 43°42' E 007°17'1 1.4
2014-Jul-20 16:30N 43°41' E 007°18'1 1.0
2014-Jul-20 15:28N 43°42' E 007°19'0 0.0
2014-Jul-20 14:32N 43°42' E 007°19'0 0.0
2014-Jul-20 13:33N 43°42' E 007°19'0 0.0
2014-Jul-20 12:33N 43°42' E 007°19'  
Track history (hours):
 
Tides and Currents Weather Stations Pressure Air Temp Water Temp Dewpoint Dewpoint Depression Visibility Wind Speed Wind Dir Waves Ship Positions

Christina G

Last reported at 2014-Jul-29 18:31 UTC. Time now 2014-Jul-29 23:04 UTC.
Position N 40°50' E 014°13'.

Length 33 m; draft 2.5 m.

MMSI: 319032100.

Date/timePositionNaut miles runAvg speedWind from/ knotsBaromVisibWave heightAir tempDewpointWater temp
2014-Jul-29 18:31N 40°50' E 014°13'0 0.0
2014-Jul-29 16:19N 40°50' E 014°13'0 0.0
2014-Jul-29 14:31N 40°50' E 014°13'1 0.1
2014-Jul-29 04:15N 40°49' E 014°14'6 8.1
2014-Jul-29 03:33N 40°46' E 014°08'8 7.8
2014-Jul-29 02:34N 40°45' E 013°57'9 8.6
2014-Jul-29 01:33N 40°49' E 013°47'175 8.6
2014-Jul-28 05:09N 42°28' E 010°34'9 8.6
2014-Jul-28 04:06N 42°33' E 010°24'5 8.6
2014-Jul-28 03:33N 42°36' E 010°19'10 8.8
2014-Jul-28 02:22N 42°42' E 010°08'9 8.6
2014-Jul-28 01:18N 42°47' E 009°57'8 8.2
2014-Jul-28 00:21N 42°52' E 009°49'6 7.9
2014-Jul-27 23:33N 42°56' E 009°42'8 8.1
2014-Jul-27 22:33N 43°00' E 009°33'12 8.6
2014-Jul-27 21:10N 43°05' E 009°18'6 8.7
2014-Jul-27 20:28N 43°08' E 009°11'8 8.7
2014-Jul-27 19:33N 43°11' E 009°01'28 8.6
2014-Jul-27 16:19N 43°21' E 008°25'8 8.9
2014-Jul-27 15:26N 43°24' E 008°15'21 9.1
2014-Jul-27 13:10N 43°32' E 007°48'6 8.7
2014-Jul-27 12:31N 43°34' E 007°41'8 8.4
2014-Jul-27 11:33N 43°37' E 007°31'9 8.6
2014-Jul-27 10:33N 43°40' E 007°20'3 2.5
2014-Jul-27 09:33N 43°42' E 007°17'0 0.0
2014-Jul-27 08:24N 43°42' E 007°17'2 2.7
2014-Jul-27 07:33N 43°42' E 007°20'0 0.0
2014-Jul-27 06:33N 43°42' E 007°20'0 0.0
2014-Jul-27 05:33N 43°42' E 007°20'0 0.0
2014-Jul-27 04:33N 43°42' E 007°20'0 0.0
2014-Jul-27 03:32N 43°42' E 007°20'0 0.0
2014-Jul-27 02:33N 43°42' E 007°20'0 0.0
2014-Jul-27 01:33N 43°42' E 007°20'0 0.0
2014-Jul-27 00:34N 43°42' E 007°20'0 0.0
2014-Jul-26 23:33N 43°42' E 007°20'0 0.0
2014-Jul-26 22:34N 43°42' E 007°20'0 0.0
2014-Jul-26 21:33N 43°42' E 007°20'0 0.0
2014-Jul-26 20:34N 43°42' E 007°20'40 7.7
2014-Jul-26 15:26N 43°57' E 008°11'0 0.4
2014-Jul-26 14:32N 43°58' E 008°10'6 5.6
2014-Jul-26 13:33N 43°57' E 008°18'2210.8
2014-Jul-26 11:33N 44°06' E 008°45'1010.2
2014-Jul-26 10:33N 44°12' E 008°58'9 9.2
2014-Jul-26 09:33N 44°16' E 009°09'  
2014-Jul-23 09:34N 44°17' E 009°10'1110.6
2014-Jul-23 08:32N 44°15' E 008°55'1010.5
2014-Jul-23 07:32N 44°14' E 008°41'9 9.6
2014-Jul-23 06:33N 44°12' E 008°28'2 1.3
2014-Jul-23 05:13N 44°12' E 008°25'0 0.0
2014-Jul-23 04:25N 44°12' E 008°25'0 0.0
2014-Jul-23 03:19N 44°12' E 008°25'0 0.0
2014-Jul-23 02:31N 44°12' E 008°25'0 0.0
2014-Jul-23 01:31N 44°12' E 008°25'0 0.0
2014-Jul-23 00:31N 44°12' E 008°25'0 0.0
2014-Jul-22 23:16N 44°12' E 008°25'0 0.0
2014-Jul-22 22:13N 44°12' E 008°25'0 0.0
2014-Jul-22 19:31N 44°12' E 008°25'13 4.5
2014-Jul-22 16:31N 44°02' E 008°14'0 0.0
2014-Jul-22 15:33N 44°02' E 008°14'0 0.0
2014-Jul-22 14:33N 44°02' E 008°14'0 0.0
2014-Jul-22 13:33N 44°02' E 008°14'42 1.6
2014-Jul-21 10:19N 43°41' E 007°22'4 2.1
2014-Jul-21 08:28N 43°42' E 007°17'0 0.0
2014-Jul-21 07:28N 43°42' E 007°17'0 0.0
2014-Jul-21 06:22N 43°42' E 007°17'0 0.0
2014-Jul-21 04:22N 43°42' E 007°17'0 0.0
2014-Jul-21 03:28N 43°42' E 007°17'0 0.0
2014-Jul-21 02:28N 43°42' E 007°17'0 0.0
2014-Jul-21 01:22N 43°42' E 007°17'0 0.0
2014-Jul-21 00:28N 43°42' E 007°17'0 0.0
2014-Jul-20 23:22N 43°42' E 007°17'0 0.0
2014-Jul-20 22:10N 43°42' E 007°17'0 0.0
2014-Jul-20 20:10N 43°42' E 007°17'0 0.0
2014-Jul-20 19:28N 43°42' E 007°17'0 0.0
2014-Jul-20 18:28N 43°42' E 007°17'0 0.0
2014-Jul-20 17:22N 43°42' E 007°17'1 1.4
2014-Jul-20 16:30N 43°41' E 007°18'1 1.0
2014-Jul-20 15:28N 43°42' E 007°19'0 0.0
2014-Jul-20 14:32N 43°42' E 007°19'0 0.0
2014-Jul-20 13:33N 43°42' E 007°19'0 0.0
2014-Jul-20 12:33N 43°42' E 007°19'  

Dump ship's entire track history